Time;durP1;ratioP1;P1;durP2;ratioP2;P2;SDS_P1;SDS_P2;PMS_P1;PMS_P2;Temp;Humidity;BMP_temperature;BMP_pressure;BME280_temperature;BME280_humidity;BME280_pressure;Samples;Min_cycle;Max_cycle;Signal;HPM_P1;HPM_P2
2022/12/21 00:02:05;;;;;;;;;;;;;;;20.50;24.47;98958.53;5100549;28;1980;-76
2022/12/21 00:04:30;;;;;;;;;;;;;;;20.68;23.98;98950.75;5119781;28;909;-76
2022/12/21 00:06:56;;;;;;;;;;;;;;;21.03;23.60;98954.47;5120296;28;924;-76
2022/12/21 00:09:22;;;;;;;;;;;;;;;21.14;23.66;98946.72;5120257;28;1101;-76
2022/12/21 00:11:47;;;;;;;;;;;;;;;21.31;23.17;98942.13;5120157;28;945;-77
2022/12/21 00:14:12;;;;;;;;;;;;;;;21.02;23.37;98941.56;5119860;28;1255;-76
2022/12/21 00:16:38;;;;;;;;;;;;;;;20.69;24.00;98937.41;5118674;28;1586;-76
2022/12/21 00:19:04;;;;;;;;;;;;;;;20.63;23.96;98934.22;5119913;28;1060;-76
2022/12/21 00:21:33;;;;;;;;;;;;;;;20.96;23.59;98938.38;5119900;28;1905;-76
2022/12/21 00:23:58;;;;;;;;;;;;;;;21.01;23.60;98931.47;5119123;28;985;-76
2022/12/21 00:26:25;;;;;;;;;;;;;;;21.11;23.41;98939.03;5118330;28;1099;-76
2022/12/21 00:28:51;;;;;;;;;;;;;;;21.28;23.21;98938.03;5119746;28;968;-76
2022/12/21 00:31:17;;;;;;;;;;;;;;;21.13;23.40;98935.78;5100336;28;1360;-76
2022/12/21 00:33:43;;;;;;;;;;;;;;;20.95;23.73;98935.97;5098025;28;952;-76
2022/12/21 00:36:09;;;;;;;;;;;;;;;20.60;24.11;98935.03;5099254;28;879;-75
2022/12/21 00:38:35;;;;;;;;;;;;;;;20.41;24.37;98935.53;5076207;28;1222;-76
2022/12/21 00:41:04;;;;;;;;;;;;;;;20.90;23.81;98944.91;5059817;28;1059;-76
2022/12/21 00:43:29;;;;;;;;;;;;;;;21.12;23.47;98929.31;5059606;28;2454;-76
2022/12/21 00:45:55;;;;;;;;;;;;;;;21.35;23.15;98933.56;5022704;28;1668;-76
2022/12/21 00:48:20;;;;;;;;;;;;;;;21.13;23.62;98925.25;5059373;28;1033;-76
2022/12/21 00:50:47;;;;;;;;;;;;;;;20.61;24.32;98922.50;5076472;28;991;-76
2022/12/21 00:53:14;;;;;;;;;;;;;;;20.50;24.29;98921.78;5076270;28;985;-76
2022/12/21 00:55:39;;;;;;;;;;;;;;;21.02;23.81;98921.75;5076059;28;991;-76
2022/12/21 00:58:05;;;;;;;;;;;;;;;20.96;23.78;98918.56;5076088;28;996;-76
2022/12/21 01:00:30;;;;;;;;;;;;;;;21.11;23.43;98921.25;5090595;28;1552;-76
2022/12/21 01:02:55;;;;;;;;;;;;;;;21.49;23.00;98913.59;5079154;28;1913;-76
2022/12/21 01:05:23;;;;;;;;;;;;;;;21.19;23.51;98905.81;5062853;28;1021;-76
2022/12/21 01:07:49;;;;;;;;;;;;;;;21.14;23.77;98909.91;5095952;28;919;-76
2022/12/21 01:10:14;;;;;;;;;;;;;;;20.84;23.85;98913.44;5108283;28;1233;-76
2022/12/21 01:12:40;;;;;;;;;;;;;;;20.52;24.57;98905.19;5117674;28;1234;-76
2022/12/21 01:15:05;;;;;;;;;;;;;;;20.85;23.85;98905.75;5118002;28;1696;-76
2022/12/21 01:17:31;;;;;;;;;;;;;;;21.00;23.98;98915.72;5118632;28;913;-77
2022/12/21 01:19:58;;;;;;;;;;;;;;;20.97;23.76;98910.88;5117520;28;1453;-76
2022/12/21 01:22:24;;;;;;;;;;;;;;;21.15;23.49;98905.84;5117244;28;1910;-76
2022/12/21 01:24:49;;;;;;;;;;;;;;;21.06;23.50;98902.72;5117242;28;933;-76
2022/12/21 01:27:15;;;;;;;;;;;;;;;20.76;24.08;98906.22;5117110;28;1171;-76
2022/12/21 01:29:40;;;;;;;;;;;;;;;20.43;24.44;98902.84;5115841;28;1564;-76
2022/12/21 01:32:06;;;;;;;;;;;;;;;20.95;24.03;98902.81;5118196;28;946;-76
2022/12/21 01:34:33;;;;;;;;;;;;;;;20.96;23.79;98895.94;5118031;28;1167;-76
2022/12/21 01:36:58;;;;;;;;;;;;;;;21.18;23.53;98905.00;5118439;28;938;-76
2022/12/21 01:39:23;;;;;;;;;;;;;;;21.24;23.42;98897.69;5099679;28;1196;-76
2022/12/21 01:41:49;;;;;;;;;;;;;;;21.16;23.68;98895.34;5118102;28;2061;-76
2022/12/21 01:44:37;;;;;;;;;;;;;;;20.85;24.25;98891.59;5087736;28;1446;-76
2022/12/21 01:47:03;;;;;;;;;;;;;;;20.63;24.18;98877.66;5096104;28;959;-76
2022/12/21 01:49:30;;;;;;;;;;;;;;;21.03;23.83;98880.91;5096718;28;1573;-76
2022/12/21 01:52:00;;;;;;;;;;;;;;;21.00;23.81;98884.59;5095038;28;971;-75
2022/12/21 01:54:26;;;;;;;;;;;;;;;21.23;23.47;98886.75;5061328;28;1116;-76
2022/12/21 01:56:53;;;;;;;;;;;;;;;21.34;23.54;98884.63;5054548;28;946;-76
2022/12/21 01:59:29;;;;;;;;;;;;;;;21.07;23.78;98878.84;5037041;28;1644;-76
2022/12/21 02:01:54;;;;;;;;;;;;;;;20.97;23.87;98865.63;5052886;28;2003;-76
2022/12/21 02:04:20;;;;;;;;;;;;;;;20.62;24.24;98864.72;5054549;28;1002;-76
2022/12/21 02:06:53;;;;;;;;;;;;;;;21.04;23.76;98868.38;5014325;28;1221;-76
2022/12/21 02:09:19;;;;;;;;;;;;;;;21.12;23.54;98867.06;4998290;28;1136;-76
2022/12/21 02:11:47;;;;;;;;;;;;;;;21.10;23.65;98861.03;4998243;28;1152;-76
2022/12/21 02:14:13;;;;;;;;;;;;;;;21.37;23.55;98863.19;4998299;28;1081;-76
2022/12/21 02:16:47;;;;;;;;;;;;;;;21.13;23.79;98857.34;5011191;28;1533;-76
2022/12/21 02:19:30;;;;;;;;;;;;;;;20.67;24.36;98846.50;5013011;28;1503;-76
2022/12/21 02:21:56;;;;;;;;;;;;;;;20.51;24.42;98838.56;5016014;28;1992;-76
2022/12/21 02:24:25;;;;;;;;;;;;;;;20.76;24.34;98844.81;5034362;28;1134;-76
2022/12/21 02:27:03;;;;;;;;;;;;;;;21.08;24.00;98841.63;5038591;28;1113;-76
2022/12/21 02:29:34;;;;;;;;;;;;;;;21.28;23.69;98849.50;5077423;28;1013;-76
2022/12/21 02:32:15;;;;;;;;;;;;;;;21.22;23.53;98837.84;5092715;28;1470;-76
2022/12/21 02:34:44;;;;;;;;;;;;;;;21.26;23.76;98844.28;5077121;28;1024;-76
2022/12/21 02:37:29;;;;;;;;;;;;;;;20.85;24.19;98830.19;5099716;28;1025;-76
2022/12/21 02:39:57;;;;;;;;;;;;;;;20.48;24.62;98834.56;5116848;28;897;-76
2022/12/21 02:45:18;;;;;;;;;;;;;;;21.16;23.69;98833.88;5115548;28;1062;-76
2022/12/21 02:48:13;;;;;;;;;;;;;;;21.12;23.66;98838.75;5114702;28;1465;-76
2022/12/21 02:50:39;;;;;;;;;;;;;;;21.30;23.56;98839.41;5033988;28;1074;-76
2022/12/21 02:53:09;;;;;;;;;;;;;;;21.03;23.66;98841.28;5000637;28;1237;-76
2022/12/21 02:55:35;;;;;;;;;;;;;;;20.67;24.25;98836.00;5017072;28;978;-76
2022/12/21 02:58:17;;;;;;;;;;;;;;;20.62;24.31;98830.78;5000999;28;1274;-76
2022/12/21 03:00:50;;;;;;;;;;;;;;;20.75;24.48;98819.78;4957757;28;1528;-76
2022/12/21 03:06:07;;;;;;;;;;;;;;;21.12;23.66;98827.44;4958977;28;1168;-76
2022/12/21 03:08:46;;;;;;;;;;;;;;;21.29;23.41;98829.25;4958417;28;1395;-76
2022/12/21 03:11:12;;;;;;;;;;;;;;;21.38;23.25;98816.66;4935913;29;1121;-76
2022/12/21 03:13:47;;;;;;;;;;;;;;;21.05;23.93;98821.88;4904152;29;1174;-76
2022/12/21 03:16:23;;;;;;;;;;;;;;;20.57;24.40;98819.13;4935405;29;1400;-76
2022/12/21 03:19:11;;;;;;;;;;;;;;;20.55;24.93;98813.91;4920026;29;1343;-76
2022/12/21 03:21:38;;;;;;;;;;;;;;;20.99;24.25;98806.59;4916616;29;1988;-76
2022/12/21 03:24:06;;;;;;;;;;;;;;;21.17;23.63;98806.38;4901145;29;1149;-76
2022/12/21 03:26:32;;;;;;;;;;;;;;;21.41;23.37;98804.50;4927673;29;978;-76
2022/12/21 03:28:57;;;;;;;;;;;;;;;21.41;23.37;98810.16;4954051;28;1100;-76
2022/12/21 03:31:25;;;;;;;;;;;;;;;20.76;24.30;98808.03;4979254;28;1661;-76
2022/12/21 03:33:53;;;;;;;;;;;;;;;20.65;24.23;98801.69;4996122;28;1555;-76
2022/12/21 03:36:22;;;;;;;;;;;;;;;20.77;24.35;98803.97;4997079;28;973;-76
2022/12/21 03:38:55;;;;;;;;;;;;;;;20.93;24.09;98802.59;4996797;28;1051;-76
2022/12/21 03:41:21;;;;;;;;;;;;;;;21.27;23.57;98800.56;4996822;28;997;-76
2022/12/21 03:43:47;;;;;;;;;;;;;;;21.16;23.82;98794.25;4996753;28;1939;-76
2022/12/21 03:46:17;;;;;;;;;;;;;;;21.33;23.40;98793.25;4996093;28;1562;-76
2022/12/21 03:48:59;;;;;;;;;;;;;;;20.97;24.00;98792.06;5017415;28;955;-76
2022/12/21 03:51:27;;;;;;;;;;;;;;;20.60;24.44;98782.34;5052957;28;981;-76
2022/12/21 03:53:55;;;;;;;;;;;;;;;20.72;24.29;98770.50;5072582;28;1009;-75
2022/12/21 03:56:23;;;;;;;;;;;;;;;20.98;24.21;98765.34;5055993;28;1101;-76
2022/12/21 03:58:49;;;;;;;;;;;;;;;21.19;23.93;98770.78;5097703;28;1130;-76
2022/12/21 04:01:40;;;;;;;;;;;;;;;21.30;23.50;98771.47;5096599;28;1264;-76
2022/12/21 04:04:09;;;;;;;;;;;;;;;21.31;23.59;98772.28;5032725;28;944;-76
2022/12/21 04:06:34;;;;;;;;;;;;;;;20.98;24.28;98765.34;4999513;28;1087;-76
2022/12/21 04:09:00;;;;;;;;;;;;;;;20.67;24.35;98770.94;5016448;28;945;-76
2022/12/21 04:14:16;;;;;;;;;;;;;;;21.11;24.05;98774.13;5030998;28;1505;-76
2022/12/21 04:16:41;;;;;;;;;;;;;;;21.30;23.78;98782.00;5016393;28;948;-76
2022/12/21 04:21:50;;;;;;;;;;;;;;;20.87;24.10;98781.66;5018481;28;1902;-76
2022/12/21 04:29:44;;;;;;;;;;;;;;;20.87;24.50;98764.69;5031753;28;1531;-76
2022/12/21 04:32:10;;;;;;;;;;;;;;;21.02;24.10;98771.78;5015869;28;1036;-76
2022/12/21 04:34:35;;;;;;;;;;;;;;;20.99;24.09;98772.66;5015558;28;1053;-76
2022/12/21 04:39:44;;;;;;;;;;;;;;;20.93;24.29;98763.00;5033496;28;964;-76
2022/12/21 04:42:10;;;;;;;;;;;;;;;20.85;24.37;98750.19;5098590;28;1972;-76
2022/12/21 04:44:35;;;;;;;;;;;;;;;20.69;24.54;98757.22;5106510;28;1492;-75
2022/12/21 04:47:00;;;;;;;;;;;;;;;21.04;24.28;98763.69;5118064;28;957;-76
2022/12/21 04:49:26;;;;;;;;;;;;;;;21.11;24.08;98763.59;5117736;28;1439;-76
2022/12/21 04:51:51;;;;;;;;;;;;;;;21.19;24.19;98765.13;5118763;28;967;-76
2022/12/21 04:54:17;;;;;;;;;;;;;;;21.10;23.89;98756.34;5118621;28;952;-76
2022/12/21 04:56:43;;;;;;;;;;;;;;;20.75;24.66;98757.56;5117859;28;1491;-76
2022/12/21 04:59:08;;;;;;;;;;;;;;;20.57;24.87;98757.72;5119125;28;995;-75
2022/12/21 05:01:33;;;;;;;;;;;;;;;21.05;24.05;98759.63;5118947;28;1967;-76
2022/12/21 05:03:59;;;;;;;;;;;;;;;21.04;24.25;98753.19;5099639;28;997;-76
2022/12/21 05:06:24;;;;;;;;;;;;;;;21.38;23.74;98743.84;5118760;28;947;-76
2022/12/21 05:08:50;;;;;;;;;;;;;;;21.17;24.05;98744.91;5118655;28;937;-76
2022/12/21 05:11:16;;;;;;;;;;;;;;;21.01;23.94;98750.38;5119285;28;938;-76
2022/12/21 05:13:42;;;;;;;;;;;;;;;20.62;24.57;98748.78;5117296;28;1216;-76
2022/12/21 05:16:08;;;;;;;;;;;;;;;20.44;25.17;98759.47;5118688;28;893;-76
2022/12/21 05:18:34;;;;;;;;;;;;;;;20.71;24.47;98746.28;5117403;28;935;-76
2022/12/21 05:20:59;;;;;;;;;;;;;;;21.23;24.17;98748.88;5117419;28;924;-76
2022/12/21 05:23:25;;;;;;;;;;;;;;;21.22;23.80;98758.59;5116984;28;1909;-76
2022/12/21 05:25:50;;;;;;;;;;;;;;;21.25;23.91;98759.78;5100565;28;1010;-76
2022/12/21 05:28:15;;;;;;;;;;;;;;;21.33;23.63;98756.44;5118362;28;906;-76
2022/12/21 05:30:41;;;;;;;;;;;;;;;20.73;24.60;98749.50;5098915;28;1039;-76
2022/12/21 05:33:06;;;;;;;;;;;;;;;20.59;24.69;98737.53;5118161;28;943;-76
2022/12/21 05:35:32;;;;;;;;;;;;;;;20.85;24.32;98739.66;5118170;28;871;-76
2022/12/21 05:38:00;;;;;;;;;;;;;;;20.99;24.41;98741.53;5117891;28;965;-76
2022/12/21 05:40:34;;;;;;;;;;;;;;;21.32;23.81;98743.53;5084213;28;1114;-76
2022/12/21 05:43:02;;;;;;;;;;;;;;;21.28;23.78;98739.91;5094890;28;1980;-76
2022/12/21 05:45:27;;;;;;;;;;;;;;;21.29;23.98;98724.53;5078397;28;1015;-76
2022/12/21 05:47:56;;;;;;;;;;;;;;;20.89;24.23;98728.31;5078294;28;1060;-76
2022/12/21 05:50:21;;;;;;;;;;;;;;;20.50;25.04;98729.53;5077986;28;980;-76
2022/12/21 05:52:47;;;;;;;;;;;;;;;20.68;24.85;98724.50;5073743;28;1237;-76
2022/12/21 05:55:12;;;;;;;;;;;;;;;21.03;24.10;98722.44;5058218;28;1032;-76
2022/12/21 05:57:38;;;;;;;;;;;;;;;21.25;23.98;98723.78;5024509;28;1159;-76
2022/12/21 06:00:03;;;;;;;;;;;;;;;21.25;23.90;98706.00;5057876;28;1056;-76
2022/12/21 06:02:37;;;;;;;;;;;;;;;21.27;24.03;98712.84;5028035;28;1899;-76
2022/12/21 06:05:03;;;;;;;;;;;;;;;20.74;24.49;98711.50;5074553;28;936;-76
2022/12/21 06:07:29;;;;;;;;;;;;;;;20.50;24.75;98718.25;5074679;28;954;-76
2022/12/21 06:09:54;;;;;;;;;;;;;;;20.76;24.61;98713.91;5074273;28;1491;-76
2022/12/21 06:12:20;;;;;;;;;;;;;;;21.07;24.32;98723.22;5074059;28;1036;-76
2022/12/21 06:14:45;;;;;;;;;;;;;;;21.14;24.01;98717.47;5108093;28;955;-76
2022/12/21 06:17:11;;;;;;;;;;;;;;;21.31;23.96;98719.28;5037204;28;1345;-76
2022/12/21 06:19:36;;;;;;;;;;;;;;;21.29;23.74;98724.53;5037658;28;1095;-76
2022/12/21 06:22:02;;;;;;;;;;;;;;;21.21;23.95;98722.22;5054098;28;1910;-76
2022/12/21 06:24:28;;;;;;;;;;;;;;;20.65;24.74;98722.50;5053574;28;1064;-76
2022/12/21 06:26:53;;;;;;;;;;;;;;;20.56;25.09;98716.53;5073803;28;1124;-76
2022/12/21 06:29:18;;;;;;;;;;;;;;;20.97;24.25;98724.94;5057200;28;991;-76
2022/12/21 06:31:44;;;;;;;;;;;;;;;21.20;24.25;98721.44;5074083;28;933;-75
2022/12/21 06:34:10;;;;;;;;;;;;;;;21.40;23.95;98723.59;5073920;28;958;-76
2022/12/21 06:36:35;;;;;;;;;;;;;;;21.42;23.88;98726.81;5074133;28;944;-76
2022/12/21 06:39:01;;;;;;;;;;;;;;;21.14;23.91;98733.63;5073810;28;995;-76
2022/12/21 06:41:26;;;;;;;;;;;;;;;20.70;24.78;98722.06;5074016;28;916;-75
2022/12/21 06:43:52;;;;;;;;;;;;;;;20.46;25.00;98720.25;5073666;28;1909;-76
2022/12/21 06:46:18;;;;;;;;;;;;;;;20.66;24.78;98732.59;5057481;28;991;-76
2022/12/21 06:48:43;;;;;;;;;;;;;;;21.06;24.17;98732.94;5056630;28;1111;-76
2022/12/21 06:51:12;;;;;;;;;;;;;;;21.16;24.26;98737.66;5073789;28;1033;-76
2022/12/21 06:53:38;;;;;;;;;;;;;;;21.32;23.75;98729.38;5044301;28;1197;-76
2022/12/21 06:56:07;;;;;;;;;;;;;;;21.21;24.17;98751.34;5115419;28;983;-76
2022/12/21 06:58:33;;;;;;;;;;;;;;;20.91;24.28;98748.47;5116752;28;904;-76
2022/12/21 07:01:07;;;;;;;;;;;;;;;20.73;24.83;98741.00;5115217;28;920;-76
2022/12/21 07:03:33;;;;;;;;;;;;;;;20.57;24.87;98749.25;5116494;28;1966;-75
2022/12/21 07:05:59;;;;;;;;;;;;;;;20.74;24.67;98751.09;5115477;28;977;-75
2022/12/21 07:08:24;;;;;;;;;;;;;;;21.11;24.11;98751.47;5116705;28;954;-76
2022/12/21 07:10:50;;;;;;;;;;;;;;;21.18;24.05;98740.84;5093572;28;980;-76
2022/12/21 07:13:15;;;;;;;;;;;;;;;21.24;23.88;98744.84;5090474;28;1102;-76
2022/12/21 07:15:41;;;;;;;;;;;;;;;21.33;24.10;98736.63;5093566;28;968;-76
2022/12/21 07:18:06;;;;;;;;;;;;;;;20.79;24.51;98736.50;5093712;28;1004;-76
2022/12/21 07:20:32;;;;;;;;;;;;;;;20.75;24.73;98735.72;5093756;28;1053;-76
2022/12/21 07:22:57;;;;;;;;;;;;;;;20.60;25.08;98739.94;5093119;28;1984;-75
2022/12/21 07:25:23;;;;;;;;;;;;;;;20.96;24.62;98740.31;5093534;28;1051;-76
2022/12/21 07:27:48;;;;;;;;;;;;;;;21.27;24.24;98738.31;5093474;28;1095;-75
2022/12/21 07:30:14;;;;;;;;;;;;;;;21.42;23.95;98727.63;5093269;28;1131;-75
2022/12/21 07:32:39;;;;;;;;;;;;;;;21.33;23.98;98725.31;5093371;28;878;-76
2022/12/21 07:35:05;;;;;;;;;;;;;;;20.75;24.81;98724.41;5093224;28;989;-76
2022/12/21 07:37:30;;;;;;;;;;;;;;;20.58;24.96;98724.63;5093555;28;1043;-76
2022/12/21 07:39:56;;;;;;;;;;;;;;;20.54;25.22;98721.84;5052835;28;1029;-76
2022/12/21 07:42:21;;;;;;;;;;;;;;;21.00;24.39;98723.31;5082090;28;1983;-75
2022/12/21 07:45:01;;;;;;;;;;;;;;;21.11;24.29;98728.84;5076098;28;1359;-76
2022/12/21 07:47:33;;;;;;;;;;;;;;;21.29;24.10;98720.88;5076154;28;1698;-76
2022/12/21 07:49:58;;;;;;;;;;;;;;;21.08;24.51;98730.47;5093384;28;880;-76
2022/12/21 07:52:24;;;;;;;;;;;;;;;21.24;24.14;98727.84;5093257;28;1023;-76
2022/12/21 07:54:49;;;;;;;;;;;;;;;21.12;24.08;98725.56;5092972;28;1037;-76
2022/12/21 07:57:15;;;;;;;;;;;;;;;20.85;24.77;98713.41;5092915;28;968;-76
2022/12/21 07:59:40;;;;;;;;;;;;;;;20.65;24.77;98714.03;5092810;28;959;-76
2022/12/21 08:02:05;;;;;;;;;;;;;;;21.10;24.39;98705.41;5093018;28;1967;-76
2022/12/21 08:04:31;;;;;;;;;;;;;;;21.18;24.09;98695.56;5092916;28;1068;-75
2022/12/21 08:06:56;;;;;;;;;;;;;;;21.36;23.95;98698.19;5093048;28;1024;-76
2022/12/21 08:09:22;;;;;;;;;;;;;;;21.28;24.12;98694.63;5092948;28;1440;-76
2022/12/21 08:11:47;;;;;;;;;;;;;;;21.23;24.14;98686.59;5112340;28;905;-76
2022/12/21 08:14:14;;;;;;;;;;;;;;;20.62;25.04;98674.47;5114382;28;1226;-76
2022/12/21 08:16:39;;;;;;;;;;;;;;;20.55;25.18;98681.81;5118747;28;880;-76
2022/12/21 08:19:05;;;;;;;;;;;;;;;20.95;24.68;98675.69;5119961;28;885;-76
2022/12/21 08:21:30;;;;;;;;;;;;;;;20.90;24.75;98691.09;5119506;28;970;-76
2022/12/21 08:23:56;;;;;;;;;;;;;;;21.08;24.30;98679.53;5119705;27;1910;-76
2022/12/21 08:26:21;;;;;;;;;;;;;;;21.32;24.19;98688.94;5119452;28;874;-76
2022/12/21 08:28:47;;;;;;;;;;;;;;;21.50;23.82;98688.66;5118432;28;912;-76
2022/12/21 08:31:16;;;;;;;;;;;;;;;21.06;24.40;98684.84;5119700;28;950;-76
2022/12/21 08:33:43;;;;;;;;;;;;;;;20.53;25.15;98689.13;5119386;28;1010;-76
2022/12/21 08:36:18;;;;;;;;;;;;;;;20.43;25.31;98695.69;5118412;28;916;-76
2022/12/21 08:38:44;;;;;;;;;;;;;;;20.88;24.55;98687.91;5118059;28;911;-75
2022/12/21 08:41:10;;;;;;;;;;;;;;;21.11;24.41;98681.53;5118090;28;1027;-76
2022/12/21 08:43:36;;;;;;;;;;;;;;;21.25;24.04;98681.34;5118207;28;1914;-76
2022/12/21 08:46:04;;;;;;;;;;;;;;;21.27;24.23;98681.69;5119227;28;944;-76
2022/12/21 08:48:30;;;;;;;;;;;;;;;20.66;25.00;98672.41;5075876;28;1321;-76
2022/12/21 08:50:56;;;;;;;;;;;;;;;20.59;25.01;98659.16;5076387;28;1043;-75
2022/12/21 08:53:21;;;;;;;;;;;;;;;20.61;25.09;98668.03;5042428;28;1110;-76
2022/12/21 08:55:47;;;;;;;;;;;;;;;20.98;24.56;98657.84;5042293;28;1124;-76
2022/12/21 08:58:12;;;;;;;;;;;;;;;21.07;24.13;98660.97;5059462;28;993;-75
2022/12/21 09:00:38;;;;;;;;;;;;;;;21.37;23.83;98656.53;5076110;28;1142;-76
2022/12/21 09:03:06;;;;;;;;;;;;;;;21.33;24.07;98653.75;5058899;28;1963;-76
2022/12/21 09:05:32;;;;;;;;;;;;;;;21.51;23.58;98661.97;5075928;28;987;-76
2022/12/21 09:07:57;;;;;;;;;;;;;;;20.79;24.68;98646.00;5058673;28;1105;-76
2022/12/21 09:10:23;;;;;;;;;;;;;;;20.53;25.15;98638.25;5075425;28;1398;-75
2022/12/21 09:12:48;;;;;;;;;;;;;;;20.67;24.82;98638.06;5075680;28;1264;-75
2022/12/21 09:15:13;;;;;;;;;;;;;;;20.93;24.74;98638.53;5075533;28;1107;-76
2022/12/21 09:17:39;;;;;;;;;;;;;;;21.10;24.22;98631.81;5042176;28;1084;-76
2022/12/21 09:20:05;;;;;;;;;;;;;;;21.49;23.85;98631.25;5075256;28;1050;-76
2022/12/21 09:22:30;;;;;;;;;;;;;;;21.10;24.30;98614.84;5075018;28;1910;-76
2022/12/21 09:24:56;;;;;;;;;;;;;;;20.72;24.60;98614.97;5075650;28;1132;-76
2022/12/21 09:27:21;;;;;;;;;;;;;;;20.40;25.25;98606.06;5074045;28;1246;-75
2022/12/21 09:29:47;;;;;;;;;;;;;;;20.93;24.41;98613.06;5075428;28;1082;-76
2022/12/21 09:32:12;;;;;;;;;;;;;;;21.12;24.48;98612.38;5075549;28;1107;-76
2022/12/21 09:34:37;;;;;;;;;;;;;;;21.21;23.91;98609.81;5075252;28;1012;-75
2022/12/21 09:37:03;;;;;;;;;;;;;;;21.41;23.88;98609.16;5058391;28;1547;-76
2022/12/21 09:39:28;;;;;;;;;;;;;;;21.02;24.17;98613.34;5058832;28;973;-76
2022/12/21 09:41:54;;;;;;;;;;;;;;;20.58;24.86;98611.53;5099825;28;1898;-76
2022/12/21 09:44:31;;;;;;;;;;;;;;;20.74;24.76;98604.03;5117753;28;956;-76
2022/12/21 09:46:58;;;;;;;;;;;;;;;21.00;24.51;98596.00;5118112;28;925;-76
2022/12/21 09:49:37;;;;;;;;;;;;;;;21.25;23.92;98592.78;5099408;28;1823;-76
2022/12/21 09:52:02;;;;;;;;;;;;;;;21.42;23.67;98583.25;5116758;28;868;-75
2022/12/21 09:54:38;;;;;;;;;;;;;;;20.87;24.33;98578.00;5117788;28;1142;-76
2022/12/21 09:57:04;;;;;;;;;;;;;;;20.65;24.88;98571.84;5118024;28;923;-76
2022/12/21 09:59:29;;;;;;;;;;;;;;;20.95;24.67;98574.66;5118216;28;955;-75
2022/12/21 10:01:55;;;;;;;;;;;;;;;21.19;24.18;98569.84;5117629;28;1969;-76
2022/12/21 10:04:24;;;;;;;;;;;;;;;21.27;24.05;98576.19;5117577;28;988;-76
2022/12/21 10:07:08;;;;;;;;;;;;;;;21.41;24.05;98569.53;5118061;28;1026;-76
2022/12/21 10:09:52;;;;;;;;;;;;;;;21.07;24.18;98564.75;5117420;28;1258;-76
2022/12/21 10:12:24;;;;;;;;;;;;;;;20.62;25.11;98556.53;5117482;28;1026;-76
2022/12/21 10:14:57;;;;;;;;;;;;;;;20.89;24.85;98562.22;5116998;28;972;-76
2022/12/21 10:17:25;;;;;;;;;;;;;;;21.04;24.33;98562.81;5116788;28;1142;-76
2022/12/21 10:20:09;;;;;;;;;;;;;;;21.19;24.33;98561.34;5117531;28;931;-76
2022/12/21 10:22:36;;;;;;;;;;;;;;;21.15;24.36;98559.81;5117100;28;1973;-76
2022/12/21 10:25:03;;;;;;;;;;;;;;;20.90;24.52;98565.84;5116175;28;864;-76
2022/12/21 10:27:31;;;;;;;;;;;;;;;20.69;25.02;98550.78;5116165;28;904;-76
2022/12/21 10:29:57;;;;;;;;;;;;;;;20.85;24.68;98557.84;5117301;28;915;-76
2022/12/21 10:32:24;;;;;;;;;;;;;;;21.14;24.45;98558.19;5116226;28;857;-76
2022/12/21 10:34:50;;;;;;;;;;;;;;;21.43;23.88;98552.91;5098898;28;1286;-76
2022/12/21 10:37:16;;;;;;;;;;;;;;;21.16;23.94;98550.88;5117408;28;977;-76
2022/12/21 10:39:43;;;;;;;;;;;;;;;21.01;24.46;98544.66;5116346;28;1071;-76
2022/12/21 10:42:12;;;;;;;;;;;;;;;20.57;24.94;98540.03;5099026;28;1964;-76
2022/12/21 10:44:38;;;;;;;;;;;;;;;21.03;24.38;98535.72;5116700;28;952;-76
2022/12/21 10:47:24;;;;;;;;;;;;;;;21.17;24.44;98540.34;5095157;28;1730;-76
2022/12/21 10:49:58;;;;;;;;;;;;;;;21.32;23.98;98542.56;5101711;28;1805;-76
2022/12/21 10:52:34;;;;;;;;;;;;;;;20.97;24.67;98543.09;5118953;27;1959;-76
2022/12/21 10:54:59;;;;;;;;;;;;;;;20.84;24.95;98539.28;5104657;28;1962;-76
2022/12/21 10:57:25;;;;;;;;;;;;;;;21.22;24.44;98537.84;5108368;28;2115;-76
2022/12/21 10:59:50;;;;;;;;;;;;;;;21.25;24.34;98542.66;5106298;28;925;-76
2022/12/21 11:02:36;;;;;;;;;;;;;;;21.19;24.38;98530.22;5102475;28;1989;-76
2022/12/21 11:05:02;;;;;;;;;;;;;;;20.69;25.22;98539.47;5102636;28;1072;-76
2022/12/21 11:07:28;;;;;;;;;;;;;;;20.57;25.30;98531.56;5098514;28;1004;-76
2022/12/21 11:09:57;;;;;;;;;;;;;;;21.06;24.58;98529.22;5094887;28;939;-76
2022/12/21 11:12:23;;;;;;;;;;;;;;;21.16;24.23;98533.91;5095793;28;1183;-76
2022/12/21 11:14:49;;;;;;;;;;;;;;;21.39;24.10;98535.16;5095852;28;963;-75
2022/12/21 11:17:18;;;;;;;;;;;;;;;20.92;24.99;98529.44;5053225;28;1025;-75
2022/12/21 11:19:44;;;;;;;;;;;;;;;20.64;25.01;98520.16;5053243;28;1068;-75
2022/12/21 11:22:10;;;;;;;;;;;;;;;20.81;24.78;98519.09;5052874;28;1942;-76
2022/12/21 11:24:39;;;;;;;;;;;;;;;21.20;24.55;98517.66;5036262;28;1001;-76
2022/12/21 11:27:10;;;;;;;;;;;;;;;21.17;24.25;98512.84;5052690;28;1159;-76
2022/12/21 11:29:51;;;;;;;;;;;;;;;21.31;24.03;98518.31;5052973;28;939;-76
2022/12/21 11:32:17;;;;;;;;;;;;;;;21.08;24.31;98521.09;5036494;28;952;-75
2022/12/21 11:34:54;;;;;;;;;;;;;;;20.77;24.68;98523.19;5053036;28;978;-76
2022/12/21 11:37:19;;;;;;;;;;;;;;;20.73;25.25;98511.16;5052702;28;966;-76
2022/12/21 11:39:45;;;;;;;;;;;;;;;21.03;24.53;98513.09;5052922;28;947;-76
2022/12/21 11:42:20;;;;;;;;;;;;;;;21.36;24.12;98508.53;5036135;28;1910;-76
2022/12/21 11:44:46;;;;;;;;;;;;;;;21.30;24.09;98499.75;5052565;28;1304;-76
2022/12/21 11:47:30;;;;;;;;;;;;;;;21.12;24.45;98499.19;5039177;28;972;-76
2022/12/21 11:50:04;;;;;;;;;;;;;;;20.85;24.99;98501.28;5094628;28;1006;-76
2022/12/21 11:52:39;;;;;;;;;;;;;;;20.60;25.27;98495.97;5095620;28;1106;-76
2022/12/21 11:55:11;;;;;;;;;;;;;;;21.01;24.53;98498.56;5052779;28;1058;-76
2022/12/21 11:57:39;;;;;;;;;;;;;;;21.50;24.04;98501.78;5052584;28;1119;-76
2022/12/21 12:00:08;;;;;;;;;;;;;;;21.56;23.74;98500.09;5032455;28;965;-76
2022/12/21 12:02:53;;;;;;;;;;;;;;;20.93;24.74;98494.25;5032787;28;2009;-76
2022/12/21 12:05:28;;;;;;;;;;;;;;;20.39;25.60;98485.75;4999509;28;973;-76
2022/12/21 12:07:56;;;;;;;;;;;;;;;21.10;24.51;98490.34;5032734;28;1012;-76
2022/12/21 12:10:27;;;;;;;;;;;;;;;21.07;24.72;98488.38;5015710;28;1003;-76
2022/12/21 12:13:01;;;;;;;;;;;;;;;21.21;24.44;98490.97;5016422;28;1200;-76
2022/12/21 12:15:48;;;;;;;;;;;;;;;21.25;24.26;98474.72;5032130;28;1072;-76
2022/12/21 12:18:14;;;;;;;;;;;;;;;20.53;25.59;98479.94;5015925;28;968;-76
2022/12/21 12:20:42;;;;;;;;;;;;;;;20.65;25.27;98470.06;5032560;28;1191;-75
2022/12/21 12:23:16;;;;;;;;;;;;;;;20.95;24.75;98466.34;5032009;28;1891;-76
2022/12/21 12:25:57;;;;;;;;;;;;;;;21.03;24.57;98467.81;5045662;28;1136;-75
2022/12/21 12:28:22;;;;;;;;;;;;;;;21.15;24.24;98467.22;5072181;28;989;-76
2022/12/21 12:30:52;;;;;;;;;;;;;;;21.21;24.20;98468.31;5072377;28;986;-75
2022/12/21 12:33:35;;;;;;;;;;;;;;;21.25;24.20;98468.28;5055720;28;1015;-76
2022/12/21 12:36:01;;;;;;;;;;;;;;;20.85;24.80;98462.47;5072096;28;1041;-75
2022/12/21 12:38:37;;;;;;;;;;;;;;;20.52;25.35;98456.53;5072324;28;938;-75
2022/12/21 12:41:18;;;;;;;;;;;;;;;20.90;24.62;98459.16;5067535;28;967;-76
2022/12/21 12:43:49;;;;;;;;;;;;;;;21.10;24.66;98466.91;5093454;28;1981;-76
2022/12/21 12:46:33;;;;;;;;;;;;;;;21.35;24.21;98460.81;5095136;28;1593;-75
2022/12/21 12:48:58;;;;;;;;;;;;;;;21.22;24.13;98464.25;5094560;28;903;-75
2022/12/21 12:51:44;;;;;;;;;;;;;;;20.88;24.75;98460.78;5095002;28;1038;-75
2022/12/21 12:54:09;;;;;;;;;;;;;;;20.66;25.33;98455.47;5032039;28;1106;-75
2022/12/21 12:56:53;;;;;;;;;;;;;;;21.03;24.46;98462.16;5032243;28;895;-76
2022/12/21 12:59:35;;;;;;;;;;;;;;;21.04;24.55;98458.13;5031825;28;1065;-76
2022/12/21 13:02:06;;;;;;;;;;;;;;;21.08;24.46;98456.00;5033986;28;1906;-76
2022/12/21 13:04:50;;;;;;;;;;;;;;;21.31;24.30;98449.59;5002812;28;1055;-76
2022/12/21 13:07:24;;;;;;;;;;;;;;;20.68;25.00;98458.69;5035486;28;925;-76
2022/12/21 13:10:10;;;;;;;;;;;;;;;20.69;25.17;98454.66;5018826;28;1104;-76
2022/12/21 13:12:38;;;;;;;;;;;;;;;20.62;25.17;98454.72;5035406;28;1173;-76
2022/12/21 13:15:07;;;;;;;;;;;;;;;21.00;24.58;98457.38;5035781;28;1083;-76
2022/12/21 13:17:43;;;;;;;;;;;;;;;21.20;24.59;98455.41;5018497;28;1609;-76
2022/12/21 13:20:10;;;;;;;;;;;;;;;21.29;24.11;98449.97;5018510;28;1060;-76
2022/12/21 13:22:36;;;;;;;;;;;;;;;21.23;24.33;98448.06;5035531;28;1899;-76
2022/12/21 13:25:05;;;;;;;;;;;;;;;21.05;24.53;98448.41;5035039;28;1055;-76
2022/12/21 13:27:37;;;;;;;;;;;;;;;20.68;25.27;98444.56;5035092;28;920;-76